Decoded Metar for KBRO (BROWNSVILLE in TX, USA) (IATA:BRO) | Meteo·Mobile Aviation Weather
aviador You're here:

KBRO Decoded Metar

BROWNSVILLE in TX, USA
Report Time2019-07-16 21:53:00
UTC Time2019-07-16 22:35:03
Flight Rules vfr VFR
Wind160° at 18 Gusting to 24 kt
W.Decomp.*RWY 17: 17.2 kt HW 5.3 kt LCW
RWY 13: 16.6 kt HW 7.0 kt RCW
Visibility9999 m
Phenomena:N/A
Clouds:Few 036 Hf
Expected CloudBase > 4,000 ft AGL from Temp-Dew spread
CeilingNone
Temp34°C (ISA +19)
Dew Point24°C (56% RH)
Heat Index40.6°C
AAT33.3°C
QNH1014 hPa
Density Alt2,546 ft
Elevation23 ft
Report Wrong Elevation
Raw Report
KBRO 162153Z 16018G24KT 10SM FEW036 34/24 A2994 RMK AO2 SLP137
T03440244=

Extra information for KBRO:More info

Metar Taf Metar & Taf Last 4 Metars F.Rules Stats Wind Profile Meteogram Temp Stats Airport Information Weather charts Add Link Nearby VenuesMetar ALERT Operation Metar Decoded Social comments

AIRNAV info for KBRO